sensor_id;sensor_type;location;lat;lon;timestamp;P1;durP1;ratioP1;P2;durP2;ratioP2
46363;SDS011;32071;49.036;9.344;2023-04-25T00:02:01;7.80;;;5.00;;
46363;SDS011;32071;49.036;9.344;2023-04-25T00:04:28;6.93;;;4.53;;
46363;SDS011;32071;49.036;9.344;2023-04-25T00:06:54;6.27;;;4.60;;
46363;SDS011;32071;49.036;9.344;2023-04-25T00:09:20;5.77;;;4.87;;
46363;SDS011;32071;49.036;9.344;2023-04-25T00:11:47;6.50;;;5.17;;
46363;SDS011;32071;49.036;9.344;2023-04-25T00:14:12;6.30;;;4.80;;
46363;SDS011;32071;49.036;9.344;2023-04-25T00:16:38;6.87;;;4.80;;
46363;SDS011;32071;49.036;9.344;2023-04-25T00:19:06;8.50;;;5.40;;
46363;SDS011;32071;49.036;9.344;2023-04-25T00:21:32;7.80;;;5.53;;
46363;SDS011;32071;49.036;9.344;2023-04-25T00:23:58;7.80;;;5.70;;
46363;SDS011;32071;49.036;9.344;2023-04-25T00:26:24;5.60;;;4.93;;
46363;SDS011;32071;49.036;9.344;2023-04-25T00:28:50;8.07;;;6.27;;
46363;SDS011;32071;49.036;9.344;2023-04-25T00:31:15;7.73;;;5.53;;
46363;SDS011;32071;49.036;9.344;2023-04-25T00:33:41;6.50;;;5.20;;
46363;SDS011;32071;49.036;9.344;2023-04-25T00:36:06;7.03;;;5.27;;
46363;SDS011;32071;49.036;9.344;2023-04-25T00:38:32;7.20;;;5.40;;
46363;SDS011;32071;49.036;9.344;2023-04-25T00:40:58;7.03;;;5.30;;
46363;SDS011;32071;49.036;9.344;2023-04-25T00:43:25;9.63;;;6.67;;
46363;SDS011;32071;49.036;9.344;2023-04-25T00:45:51;7.30;;;5.70;;
46363;SDS011;32071;49.036;9.344;2023-04-25T00:48:17;7.60;;;6.00;;
46363;SDS011;32071;49.036;9.344;2023-04-25T00:50:46;7.10;;;5.33;;
46363;SDS011;32071;49.036;9.344;2023-04-25T00:53:19;7.77;;;5.63;;
46363;SDS011;32071;49.036;9.344;2023-04-25T00:55:48;6.80;;;5.80;;
46363;SDS011;32071;49.036;9.344;2023-04-25T00:58:16;9.10;;;6.00;;
46363;SDS011;32071;49.036;9.344;2023-04-25T01:00:42;6.97;;;5.50;;
46363;SDS011;32071;49.036;9.344;2023-04-25T01:03:10;9.77;;;5.73;;
46363;SDS011;32071;49.036;9.344;2023-04-25T01:05:35;5.80;;;4.63;;
46363;SDS011;32071;49.036;9.344;2023-04-25T01:08:01;8.40;;;4.90;;
46363;SDS011;32071;49.036;9.344;2023-04-25T01:10:27;5.53;;;4.57;;
46363;SDS011;32071;49.036;9.344;2023-04-25T01:12:52;7.20;;;5.90;;
46363;SDS011;32071;49.036;9.344;2023-04-25T01:15:18;9.43;;;5.73;;
46363;SDS011;32071;49.036;9.344;2023-04-25T01:17:44;8.63;;;6.47;;
46363;SDS011;32071;49.036;9.344;2023-04-25T01:20:10;10.43;;;5.80;;
46363;SDS011;32071;49.036;9.344;2023-04-25T01:22:36;8.63;;;5.93;;
46363;SDS011;32071;49.036;9.344;2023-04-25T01:25:03;8.13;;;6.00;;
46363;SDS011;32071;49.036;9.344;2023-04-25T01:27:29;6.47;;;5.10;;
46363;SDS011;32071;49.036;9.344;2023-04-25T01:29:55;6.80;;;5.50;;
46363;SDS011;32071;49.036;9.344;2023-04-25T01:32:22;7.47;;;5.90;;
46363;SDS011;32071;49.036;9.344;2023-04-25T01:34:48;7.93;;;6.40;;
46363;SDS011;32071;49.036;9.344;2023-04-25T01:37:14;9.10;;;6.60;;
46363;SDS011;32071;49.036;9.344;2023-04-25T01:39:41;7.07;;;5.87;;
46363;SDS011;32071;49.036;9.344;2023-04-25T01:42:06;7.17;;;5.30;;
46363;SDS011;32071;49.036;9.344;2023-04-25T01:44:32;6.57;;;5.37;;
46363;SDS011;32071;49.036;9.344;2023-04-25T01:46:58;11.07;;;7.00;;
46363;SDS011;32071;49.036;9.344;2023-04-25T01:49:23;10.20;;;6.40;;
46363;SDS011;32071;49.036;9.344;2023-04-25T01:51:49;10.40;;;7.67;;
46363;SDS011;32071;49.036;9.344;2023-04-25T01:54:15;9.73;;;6.93;;
46363;SDS011;32071;49.036;9.344;2023-04-25T01:56:40;9.37;;;6.60;;
46363;SDS011;32071;49.036;9.344;2023-04-25T01:59:06;8.87;;;6.23;;
46363;SDS011;32071;49.036;9.344;2023-04-25T02:01:32;7.67;;;5.73;;
46363;SDS011;32071;49.036;9.344;2023-04-25T02:03:57;8.60;;;6.23;;
46363;SDS011;32071;49.036;9.344;2023-04-25T02:06:23;9.30;;;6.13;;
46363;SDS011;32071;49.036;9.344;2023-04-25T02:08:49;6.80;;;5.17;;
46363;SDS011;32071;49.036;9.344;2023-04-25T02:11:15;8.97;;;6.10;;
46363;SDS011;32071;49.036;9.344;2023-04-25T02:13:40;8.17;;;5.87;;
46363;SDS011;32071;49.036;9.344;2023-04-25T02:16:06;6.83;;;5.53;;
46363;SDS011;32071;49.036;9.344;2023-04-25T02:18:31;9.10;;;6.20;;
46363;SDS011;32071;49.036;9.344;2023-04-25T02:20:59;12.10;;;5.60;;
46363;SDS011;32071;49.036;9.344;2023-04-25T02:23:24;7.40;;;5.50;;
46363;SDS011;32071;49.036;9.344;2023-04-25T02:25:50;8.57;;;5.83;;
46363;SDS011;32071;49.036;9.344;2023-04-25T02:28:16;8.63;;;5.70;;
46363;SDS011;32071;49.036;9.344;2023-04-25T02:30:42;7.07;;;5.67;;
46363;SDS011;32071;49.036;9.344;2023-04-25T02:33:07;7.27;;;5.23;;
46363;SDS011;32071;49.036;9.344;2023-04-25T02:35:33;7.73;;;6.20;;
46363;SDS011;32071;49.036;9.344;2023-04-25T02:37:59;7.90;;;5.90;;
46363;SDS011;32071;49.036;9.344;2023-04-25T02:40:24;7.07;;;5.50;;
46363;SDS011;32071;49.036;9.344;2023-04-25T02:42:50;6.13;;;4.80;;
46363;SDS011;32071;49.036;9.344;2023-04-25T02:45:16;10.03;;;6.23;;
46363;SDS011;32071;49.036;9.344;2023-04-25T02:47:42;7.50;;;5.60;;
46363;SDS011;32071;49.036;9.344;2023-04-25T02:50:07;8.10;;;6.10;;
46363;SDS011;32071;49.036;9.344;2023-04-25T02:52:33;8.40;;;6.63;;
46363;SDS011;32071;49.036;9.344;2023-04-25T02:54:58;7.70;;;6.10;;
46363;SDS011;32071;49.036;9.344;2023-04-25T02:57:24;15.87;;;6.27;;
46363;SDS011;32071;49.036;9.344;2023-04-25T02:59:50;10.93;;;5.53;;
46363;SDS011;32071;49.036;9.344;2023-04-25T03:02:15;9.87;;;5.77;;
46363;SDS011;32071;49.036;9.344;2023-04-25T03:04:41;13.10;;;6.43;;
46363;SDS011;32071;49.036;9.344;2023-04-25T03:07:06;7.47;;;5.50;;
46363;SDS011;32071;49.036;9.344;2023-04-25T03:09:32;8.47;;;6.07;;
46363;SDS011;32071;49.036;9.344;2023-04-25T03:11:58;9.13;;;6.23;;
46363;SDS011;32071;49.036;9.344;2023-04-25T03:14:23;8.97;;;6.47;;
46363;SDS011;32071;49.036;9.344;2023-04-25T03:16:49;8.73;;;5.80;;
46363;SDS011;32071;49.036;9.344;2023-04-25T03:19:14;7.87;;;5.67;;
46363;SDS011;32071;49.036;9.344;2023-04-25T03:21:43;7.30;;;6.30;;
46363;SDS011;32071;49.036;9.344;2023-04-25T03:24:09;10.43;;;6.07;;
46363;SDS011;32071;49.036;9.344;2023-04-25T03:26:36;7.10;;;6.07;;
46363;SDS011;32071;49.036;9.344;2023-04-25T03:29:02;9.63;;;6.60;;
46363;SDS011;32071;49.036;9.344;2023-04-25T03:31:27;10.60;;;6.80;;
46363;SDS011;32071;49.036;9.344;2023-04-25T03:33:53;7.80;;;6.47;;
46363;SDS011;32071;49.036;9.344;2023-04-25T03:36:19;8.93;;;6.50;;
46363;SDS011;32071;49.036;9.344;2023-04-25T03:38:44;8.90;;;6.33;;
46363;SDS011;32071;49.036;9.344;2023-04-25T03:41:10;8.57;;;6.37;;
46363;SDS011;32071;49.036;9.344;2023-04-25T03:43:35;7.87;;;5.70;;
46363;SDS011;32071;49.036;9.344;2023-04-25T03:46:01;8.30;;;6.70;;
46363;SDS011;32071;49.036;9.344;2023-04-25T03:48:26;8.47;;;6.37;;
46363;SDS011;32071;49.036;9.344;2023-04-25T03:50:52;7.93;;;6.27;;
46363;SDS011;32071;49.036;9.344;2023-04-25T03:53:19;8.50;;;5.97;;
46363;SDS011;32071;49.036;9.344;2023-04-25T03:55:44;9.60;;;6.20;;
46363;SDS011;32071;49.036;9.344;2023-04-25T03:58:10;7.90;;;6.07;;
46363;SDS011;32071;49.036;9.344;2023-04-25T04:00:36;8.43;;;6.17;;
46363;SDS011;32071;49.036;9.344;2023-04-25T04:03:01;8.30;;;6.70;;
46363;SDS011;32071;49.036;9.344;2023-04-25T04:05:27;10.00;;;7.10;;
46363;SDS011;32071;49.036;9.344;2023-04-25T04:07:53;10.90;;;6.17;;
46363;SDS011;32071;49.036;9.344;2023-04-25T04:10:19;7.70;;;5.90;;
46363;SDS011;32071;49.036;9.344;2023-04-25T04:12:45;9.03;;;5.90;;
46363;SDS011;32071;49.036;9.344;2023-04-25T04:15:11;10.13;;;6.10;;
46363;SDS011;32071;49.036;9.344;2023-04-25T04:17:37;8.50;;;6.30;;
46363;SDS011;32071;49.036;9.344;2023-04-25T04:20:03;9.13;;;6.33;;
46363;SDS011;32071;49.036;9.344;2023-04-25T04:22:29;7.43;;;6.17;;
46363;SDS011;32071;49.036;9.344;2023-04-25T04:24:55;9.47;;;6.60;;
46363;SDS011;32071;49.036;9.344;2023-04-25T04:27:22;8.43;;;6.10;;
46363;SDS011;32071;49.036;9.344;2023-04-25T04:29:48;9.50;;;6.53;;
46363;SDS011;32071;49.036;9.344;2023-04-25T04:32:15;9.83;;;6.60;;
46363;SDS011;32071;49.036;9.344;2023-04-25T04:34:41;12.10;;;6.20;;
46363;SDS011;32071;49.036;9.344;2023-04-25T04:37:06;9.40;;;6.50;;
46363;SDS011;32071;49.036;9.344;2023-04-25T04:39:35;9.93;;;7.43;;
46363;SDS011;32071;49.036;9.344;2023-04-25T04:42:01;9.23;;;6.07;;
46363;SDS011;32071;49.036;9.344;2023-04-25T04:44:29;9.80;;;6.50;;
46363;SDS011;32071;49.036;9.344;2023-04-25T04:46:57;9.47;;;7.00;;
46363;SDS011;32071;49.036;9.344;2023-04-25T04:49:23;9.50;;;6.77;;
46363;SDS011;32071;49.036;9.344;2023-04-25T04:51:49;7.60;;;6.00;;
46363;SDS011;32071;49.036;9.344;2023-04-25T04:54:14;8.30;;;5.90;;
46363;SDS011;32071;49.036;9.344;2023-04-25T04:56:40;9.00;;;6.33;;
46363;SDS011;32071;49.036;9.344;2023-04-25T04:59:06;8.40;;;6.20;;
46363;SDS011;32071;49.036;9.344;2023-04-25T05:01:32;8.77;;;6.00;;
46363;SDS011;32071;49.036;9.344;2023-04-25T05:04:00;8.10;;;6.30;;
46363;SDS011;32071;49.036;9.344;2023-04-25T05:06:26;7.33;;;6.17;;
46363;SDS011;32071;49.036;9.344;2023-04-25T05:08:53;8.50;;;6.07;;
46363;SDS011;32071;49.036;9.344;2023-04-25T05:11:19;8.03;;;5.00;;
46363;SDS011;32071;49.036;9.344;2023-04-25T05:13:45;9.17;;;6.43;;
46363;SDS011;32071;49.036;9.344;2023-04-25T05:16:12;9.80;;;6.57;;
46363;SDS011;32071;49.036;9.344;2023-04-25T05:18:38;9.30;;;6.70;;
46363;SDS011;32071;49.036;9.344;2023-04-25T05:21:05;7.97;;;5.90;;
46363;SDS011;32071;49.036;9.344;2023-04-25T05:23:31;8.60;;;5.57;;
46363;SDS011;32071;49.036;9.344;2023-04-25T05:25:57;7.90;;;5.33;;
46363;SDS011;32071;49.036;9.344;2023-04-25T05:28:23;9.90;;;6.13;;
46363;SDS011;32071;49.036;9.344;2023-04-25T05:30:48;10.10;;;6.20;;
46363;SDS011;32071;49.036;9.344;2023-04-25T05:33:14;12.10;;;6.70;;
46363;SDS011;32071;49.036;9.344;2023-04-25T05:35:40;9.37;;;5.37;;
46363;SDS011;32071;49.036;9.344;2023-04-25T05:38:06;10.40;;;6.10;;
46363;SDS011;32071;49.036;9.344;2023-04-25T05:40:32;9.23;;;6.90;;
46363;SDS011;32071;49.036;9.344;2023-04-25T05:42:57;9.10;;;6.70;;
46363;SDS011;32071;49.036;9.344;2023-04-25T05:45:24;10.93;;;6.77;;
46363;SDS011;32071;49.036;9.344;2023-04-25T05:47:49;6.97;;;5.70;;
46363;SDS011;32071;49.036;9.344;2023-04-25T05:50:15;8.27;;;5.97;;
46363;SDS011;32071;49.036;9.344;2023-04-25T05:52:41;10.40;;;6.60;;
46363;SDS011;32071;49.036;9.344;2023-04-25T05:55:06;10.37;;;6.90;;
46363;SDS011;32071;49.036;9.344;2023-04-25T05:57:32;10.53;;;6.80;;
46363;SDS011;32071;49.036;9.344;2023-04-25T05:59:58;10.00;;;6.53;;
46363;SDS011;32071;49.036;9.344;2023-04-25T06:02:23;10.43;;;7.40;;
46363;SDS011;32071;49.036;9.344;2023-04-25T06:04:49;10.10;;;6.57;;
46363;SDS011;32071;49.036;9.344;2023-04-25T06:07:16;9.57;;;6.50;;
46363;SDS011;32071;49.036;9.344;2023-04-25T06:09:42;8.90;;;6.30;;
46363;SDS011;32071;49.036;9.344;2023-04-25T06:12:08;8.80;;;6.23;;
46363;SDS011;32071;49.036;9.344;2023-04-25T06:14:34;9.77;;;6.87;;
46363;SDS011;32071;49.036;9.344;2023-04-25T06:16:59;8.23;;;6.33;;
46363;SDS011;32071;49.036;9.344;2023-04-25T06:19:31;7.57;;;5.73;;
46363;SDS011;32071;49.036;9.344;2023-04-25T06:21:57;8.60;;;6.10;;
46363;SDS011;32071;49.036;9.344;2023-04-25T06:24:23;9.23;;;5.87;;
46363;SDS011;32071;49.036;9.344;2023-04-25T06:26:48;11.47;;;5.67;;
46363;SDS011;32071;49.036;9.344;2023-04-25T06:29:14;8.40;;;6.17;;
46363;SDS011;32071;49.036;9.344;2023-04-25T06:31:39;8.70;;;5.20;;
46363;SDS011;32071;49.036;9.344;2023-04-25T06:34:05;8.40;;;5.27;;
46363;SDS011;32071;49.036;9.344;2023-04-25T06:36:31;10.60;;;6.10;;
46363;SDS011;32071;49.036;9.344;2023-04-25T06:38:56;8.50;;;5.83;;
46363;SDS011;32071;49.036;9.344;2023-04-25T06:41:22;9.23;;;6.17;;
46363;SDS011;32071;49.036;9.344;2023-04-25T06:43:47;8.07;;;5.67;;
46363;SDS011;32071;49.036;9.344;2023-04-25T06:46:13;6.57;;;5.60;;
46363;SDS011;32071;49.036;9.344;2023-04-25T06:48:38;7.13;;;5.50;;
46363;SDS011;32071;49.036;9.344;2023-04-25T06:51:04;6.70;;;5.30;;
46363;SDS011;32071;49.036;9.344;2023-04-25T06:53:30;6.63;;;4.90;;
46363;SDS011;32071;49.036;9.344;2023-04-25T06:55:55;6.03;;;4.90;;
46363;SDS011;32071;49.036;9.344;2023-04-25T06:58:21;6.67;;;4.40;;
46363;SDS011;32071;49.036;9.344;2023-04-25T07:00:47;8.17;;;6.00;;
46363;SDS011;32071;49.036;9.344;2023-04-25T07:03:12;7.37;;;4.60;;
46363;SDS011;32071;49.036;9.344;2023-04-25T07:05:38;8.17;;;6.20;;
46363;SDS011;32071;49.036;9.344;2023-04-25T07:08:03;6.70;;;5.10;;
46363;SDS011;32071;49.036;9.344;2023-04-25T07:10:29;6.17;;;5.40;;
46363;SDS011;32071;49.036;9.344;2023-04-25T07:12:55;7.40;;;5.90;;
46363;SDS011;32071;49.036;9.344;2023-04-25T07:15:20;6.57;;;5.33;;
46363;SDS011;32071;49.036;9.344;2023-04-25T07:17:46;7.73;;;6.40;;
46363;SDS011;32071;49.036;9.344;2023-04-25T07:20:12;7.17;;;5.13;;
46363;SDS011;32071;49.036;9.344;2023-04-25T07:22:37;7.93;;;5.67;;
46363;SDS011;32071;49.036;9.344;2023-04-25T07:25:03;10.40;;;7.87;;
46363;SDS011;32071;49.036;9.344;2023-04-25T07:27:29;10.20;;;6.90;;
46363;SDS011;32071;49.036;9.344;2023-04-25T07:29:55;12.33;;;7.50;;
46363;SDS011;32071;49.036;9.344;2023-04-25T07:32:20;12.23;;;7.33;;
46363;SDS011;32071;49.036;9.344;2023-04-25T07:34:46;10.37;;;7.40;;
46363;SDS011;32071;49.036;9.344;2023-04-25T07:37:12;9.47;;;6.43;;
46363;SDS011;32071;49.036;9.344;2023-04-25T07:39:39;10.60;;;7.03;;
46363;SDS011;32071;49.036;9.344;2023-04-25T07:42:05;9.50;;;7.07;;
46363;SDS011;32071;49.036;9.344;2023-04-25T07:44:33;9.80;;;6.93;;
46363;SDS011;32071;49.036;9.344;2023-04-25T07:47:03;10.83;;;7.40;;
46363;SDS011;32071;49.036;9.344;2023-04-25T07:49:31;9.63;;;7.00;;
46363;SDS011;32071;49.036;9.344;2023-04-25T07:52:01;10.68;;;8.40;;
46363;SDS011;32071;49.036;9.344;2023-04-25T07:54:27;10.98;;;8.23;;
46363;SDS011;32071;49.036;9.344;2023-04-25T07:56:53;10.23;;;7.70;;
46363;SDS011;32071;49.036;9.344;2023-04-25T07:59:19;9.57;;;7.40;;
46363;SDS011;32071;49.036;9.344;2023-04-25T08:01:44;10.80;;;7.40;;
46363;SDS011;32071;49.036;9.344;2023-04-25T08:04:10;10.50;;;7.60;;
46363;SDS011;32071;49.036;9.344;2023-04-25T08:06:36;9.53;;;7.53;;
46363;SDS011;32071;49.036;9.344;2023-04-25T08:09:02;10.77;;;7.53;;
46363;SDS011;32071;49.036;9.344;2023-04-25T08:11:28;9.70;;;7.83;;
46363;SDS011;32071;49.036;9.344;2023-04-25T08:13:53;9.83;;;7.30;;
46363;SDS011;32071;49.036;9.344;2023-04-25T08:16:19;8.77;;;6.63;;
46363;SDS011;32071;49.036;9.344;2023-04-25T08:18:44;9.43;;;6.87;;
46363;SDS011;32071;49.036;9.344;2023-04-25T08:21:10;11.17;;;7.90;;
46363;SDS011;32071;49.036;9.344;2023-04-25T08:23:37;9.87;;;7.07;;
46363;SDS011;32071;49.036;9.344;2023-04-25T08:26:02;13.27;;;8.90;;
46363;SDS011;32071;49.036;9.344;2023-04-25T08:28:29;10.73;;;8.20;;
46363;SDS011;32071;49.036;9.344;2023-04-25T08:30:55;12.70;;;8.37;;
46363;SDS011;32071;49.036;9.344;2023-04-25T08:33:21;10.90;;;7.90;;
46363;SDS011;32071;49.036;9.344;2023-04-25T08:35:46;11.23;;;7.63;;
46363;SDS011;32071;49.036;9.344;2023-04-25T08:38:12;10.37;;;8.00;;
46363;SDS011;32071;49.036;9.344;2023-04-25T08:40:38;11.60;;;8.10;;
46363;SDS011;32071;49.036;9.344;2023-04-25T08:43:05;13.40;;;8.07;;
46363;SDS011;32071;49.036;9.344;2023-04-25T08:45:36;11.07;;;7.43;;
46363;SDS011;32071;49.036;9.344;2023-04-25T08:48:06;11.30;;;8.30;;
46363;SDS011;32071;49.036;9.344;2023-04-25T08:50:36;12.50;;;8.53;;
46363;SDS011;32071;49.036;9.344;2023-04-25T08:53:04;12.50;;;8.80;;
46363;SDS011;32071;49.036;9.344;2023-04-25T08:55:38;9.67;;;7.60;;
46363;SDS011;32071;49.036;9.344;2023-04-25T08:58:06;10.47;;;8.23;;
46363;SDS011;32071;49.036;9.344;2023-04-25T09:00:33;12.70;;;8.07;;
46363;SDS011;32071;49.036;9.344;2023-04-25T09:02:59;11.07;;;8.00;;
46363;SDS011;32071;49.036;9.344;2023-04-25T09:05:25;7.90;;;7.00;;
46363;SDS011;32071;49.036;9.344;2023-04-25T09:07:50;11.70;;;7.90;;
46363;SDS011;32071;49.036;9.344;2023-04-25T09:10:16;9.07;;;7.17;;
46363;SDS011;32071;49.036;9.344;2023-04-25T09:12:42;10.43;;;7.33;;
46363;SDS011;32071;49.036;9.344;2023-04-25T09:15:08;11.50;;;7.90;;
46363;SDS011;32071;49.036;9.344;2023-04-25T09:17:35;14.90;;;8.47;;
46363;SDS011;32071;49.036;9.344;2023-04-25T09:20:12;14.07;;;8.30;;
46363;SDS011;32071;49.036;9.344;2023-04-25T09:22:38;15.60;;;9.30;;
46363;SDS011;32071;49.036;9.344;2023-04-25T09:25:10;13.77;;;10.37;;
46363;SDS011;32071;49.036;9.344;2023-04-25T09:27:37;14.03;;;8.87;;
46363;SDS011;32071;49.036;9.344;2023-04-25T09:30:18;13.30;;;9.70;;
46363;SDS011;32071;49.036;9.344;2023-04-25T09:32:54;12.43;;;9.37;;
46363;SDS011;32071;49.036;9.344;2023-04-25T09:35:25;11.70;;;9.20;;
46363;SDS011;32071;49.036;9.344;2023-04-25T09:37:55;14.97;;;8.80;;
46363;SDS011;32071;49.036;9.344;2023-04-25T09:40:21;15.63;;;9.43;;
46363;SDS011;32071;49.036;9.344;2023-04-25T09:42:46;13.20;;;9.97;;
46363;SDS011;32071;49.036;9.344;2023-04-25T09:45:12;14.30;;;9.60;;
46363;SDS011;32071;49.036;9.344;2023-04-25T09:47:40;16.80;;;10.10;;
46363;SDS011;32071;49.036;9.344;2023-04-25T09:50:15;13.27;;;9.47;;
46363;SDS011;32071;49.036;9.344;2023-04-25T09:52:41;7.90;;;5.97;;
46363;SDS011;32071;49.036;9.344;2023-04-25T09:55:07;8.67;;;4.87;;
46363;SDS011;32071;49.036;9.344;2023-04-25T09:57:33;6.17;;;4.63;;
46363;SDS011;32071;49.036;9.344;2023-04-25T10:00:00;6.40;;;4.93;;
46363;SDS011;32071;49.036;9.344;2023-04-25T10:02:29;8.30;;;5.37;;
46363;SDS011;32071;49.036;9.344;2023-04-25T10:04:55;8.50;;;6.40;;
46363;SDS011;32071;49.036;9.344;2023-04-25T10:07:25;8.20;;;5.90;;
46363;SDS011;32071;49.036;9.344;2023-04-25T10:10:03;7.07;;;5.40;;
46363;SDS011;32071;49.036;9.344;2023-04-25T10:12:30;11.20;;;5.70;;
46363;SDS011;32071;49.036;9.344;2023-04-25T10:14:58;11.70;;;5.50;;
46363;SDS011;32071;49.036;9.344;2023-04-25T10:17:24;9.80;;;6.20;;
46363;SDS011;32071;49.036;9.344;2023-04-25T10:19:52;13.00;;;6.63;;
46363;SDS011;32071;49.036;9.344;2023-04-25T10:25:27;8.30;;;6.70;;
46363;SDS011;32071;49.036;9.344;2023-04-25T10:27:53;11.80;;;6.40;;
46363;SDS011;32071;49.036;9.344;2023-04-25T10:30:19;11.33;;;7.03;;
46363;SDS011;32071;49.036;9.344;2023-04-25T10:32:44;10.90;;;7.10;;
46363;SDS011;32071;49.036;9.344;2023-04-25T10:37:37;7.90;;;5.80;;
46363;SDS011;32071;49.036;9.344;2023-04-25T10:40:09;8.83;;;6.00;;
46363;SDS011;32071;49.036;9.344;2023-04-25T10:42:35;11.30;;;5.80;;
46363;SDS011;32071;49.036;9.344;2023-04-25T10:45:02;8.70;;;6.17;;
46363;SDS011;32071;49.036;9.344;2023-04-25T10:47:36;8.47;;;6.00;;
46363;SDS011;32071;49.036;9.344;2023-04-25T10:50:08;11.80;;;6.57;;
46363;SDS011;32071;49.036;9.344;2023-04-25T10:52:34;9.57;;;6.60;;
46363;SDS011;32071;49.036;9.344;2023-04-25T10:54:59;8.10;;;5.90;;
46363;SDS011;32071;49.036;9.344;2023-04-25T10:57:44;11.23;;;6.67;;
46363;SDS011;32071;49.036;9.344;2023-04-25T11:00:15;7.70;;;5.90;;
46363;SDS011;32071;49.036;9.344;2023-04-25T11:05:20;9.90;;;7.00;;
46363;SDS011;32071;49.036;9.344;2023-04-25T11:07:51;12.57;;;8.00;;
46363;SDS011;32071;49.036;9.344;2023-04-25T11:10:19;10.60;;;8.00;;
46363;SDS011;32071;49.036;9.344;2023-04-25T11:12:45;13.60;;;8.00;;
46363;SDS011;32071;49.036;9.344;2023-04-25T11:15:12;14.97;;;9.37;;
46363;SDS011;32071;49.036;9.344;2023-04-25T11:17:38;16.80;;;11.50;;
46363;SDS011;32071;49.036;9.344;2023-04-25T11:20:05;13.83;;;10.23;;
46363;SDS011;32071;49.036;9.344;2023-04-25T11:22:34;14.03;;;9.37;;
46363;SDS011;32071;49.036;9.344;2023-04-25T11:25:04;12.57;;;8.57;;
46363;SDS011;32071;49.036;9.344;2023-04-25T11:27:30;12.03;;;8.87;;
46363;SDS011;32071;49.036;9.344;2023-04-25T11:29:56;11.97;;;8.63;;
46363;SDS011;32071;49.036;9.344;2023-04-25T11:32:21;15.23;;;9.60;;
46363;SDS011;32071;49.036;9.344;2023-04-25T11:34:48;15.30;;;9.70;;
46363;SDS011;32071;49.036;9.344;2023-04-25T11:37:13;14.07;;;9.43;;
46363;SDS011;32071;49.036;9.344;2023-04-25T11:39:42;14.90;;;9.20;;
46363;SDS011;32071;49.036;9.344;2023-04-25T11:42:10;13.23;;;9.90;;
46363;SDS011;32071;49.036;9.344;2023-04-25T11:44:35;12.50;;;7.27;;
46363;SDS011;32071;49.036;9.344;2023-04-25T11:47:03;11.27;;;7.80;;
46363;SDS011;32071;49.036;9.344;2023-04-25T11:49:32;11.47;;;7.93;;
46363;SDS011;32071;49.036;9.344;2023-04-25T11:51:58;10.67;;;6.50;;
46363;SDS011;32071;49.036;9.344;2023-04-25T11:54:23;9.77;;;7.20;;
46363;SDS011;32071;49.036;9.344;2023-04-25T11:56:49;10.10;;;7.27;;
46363;SDS011;32071;49.036;9.344;2023-04-25T11:59:15;9.73;;;5.80;;
46363;SDS011;32071;49.036;9.344;2023-04-25T12:01:47;9.83;;;6.70;;
46363;SDS011;32071;49.036;9.344;2023-04-25T12:06:40;10.73;;;6.53;;
46363;SDS011;32071;49.036;9.344;2023-04-25T12:09:07;8.10;;;6.37;;
46363;SDS011;32071;49.036;9.344;2023-04-25T12:11:41;9.67;;;7.50;;
46363;SDS011;32071;49.036;9.344;2023-04-25T12:14:11;9.17;;;6.83;;
46363;SDS011;32071;49.036;9.344;2023-04-25T12:16:45;12.10;;;8.50;;
46363;SDS011;32071;49.036;9.344;2023-04-25T12:19:15;11.80;;;7.77;;
46363;SDS011;32071;49.036;9.344;2023-04-25T12:21:42;9.63;;;7.50;;
46363;SDS011;32071;49.036;9.344;2023-04-25T12:24:12;11.07;;;8.20;;
46363;SDS011;32071;49.036;9.344;2023-04-25T12:26:49;11.37;;;7.87;;
46363;SDS011;32071;49.036;9.344;2023-04-25T12:29:26;10.63;;;7.67;;
46363;SDS011;32071;49.036;9.344;2023-04-25T12:31:53;10.10;;;7.20;;
46363;SDS011;32071;49.036;9.344;2023-04-25T12:34:19;10.60;;;8.03;;
46363;SDS011;32071;49.036;9.344;2023-04-25T12:36:46;11.17;;;7.67;;
46363;SDS011;32071;49.036;9.344;2023-04-25T12:39:15;11.47;;;8.17;;
46363;SDS011;32071;49.036;9.344;2023-04-25T12:41:41;11.77;;;7.70;;
46363;SDS011;32071;49.036;9.344;2023-04-25T12:44:07;11.93;;;8.40;;
46363;SDS011;32071;49.036;9.344;2023-04-25T12:46:33;16.27;;;9.30;;
46363;SDS011;32071;49.036;9.344;2023-04-25T12:48:59;12.43;;;7.90;;
46363;SDS011;32071;49.036;9.344;2023-04-25T12:51:25;13.23;;;8.50;;
46363;SDS011;32071;49.036;9.344;2023-04-25T12:53:52;14.03;;;8.20;;
46363;SDS011;32071;49.036;9.344;2023-04-25T12:56:18;16.27;;;8.90;;
46363;SDS011;32071;49.036;9.344;2023-04-25T12:58:44;11.20;;;7.97;;
46363;SDS011;32071;49.036;9.344;2023-04-25T13:01:09;11.63;;;8.13;;
46363;SDS011;32071;49.036;9.344;2023-04-25T13:03:36;11.23;;;8.10;;
46363;SDS011;32071;49.036;9.344;2023-04-25T13:06:02;13.17;;;8.23;;
46363;SDS011;32071;49.036;9.344;2023-04-25T13:08:27;15.13;;;10.00;;
46363;SDS011;32071;49.036;9.344;2023-04-25T13:10:53;13.20;;;9.53;;
46363;SDS011;32071;49.036;9.344;2023-04-25T13:13:18;16.03;;;10.63;;
46363;SDS011;32071;49.036;9.344;2023-04-25T13:15:45;15.30;;;10.33;;
46363;SDS011;32071;49.036;9.344;2023-04-25T13:18:11;18.13;;;10.27;;
46363;SDS011;32071;49.036;9.344;2023-04-25T13:20:36;20.00;;;11.07;;
46363;SDS011;32071;49.036;9.344;2023-04-25T13:23:02;18.07;;;10.97;;
46363;SDS011;32071;49.036;9.344;2023-04-25T13:25:27;20.67;;;12.00;;
46363;SDS011;32071;49.036;9.344;2023-04-25T13:27:53;16.77;;;11.80;;
46363;SDS011;32071;49.036;9.344;2023-04-25T13:30:18;20.40;;;10.77;;
46363;SDS011;32071;49.036;9.344;2023-04-25T13:32:44;21.90;;;12.80;;
46363;SDS011;32071;49.036;9.344;2023-04-25T13:35:10;17.03;;;11.50;;
46363;SDS011;32071;49.036;9.344;2023-04-25T13:37:38;17.87;;;10.80;;
46363;SDS011;32071;49.036;9.344;2023-04-25T13:40:06;18.60;;;11.13;;
46363;SDS011;32071;49.036;9.344;2023-04-25T13:42:34;20.47;;;12.93;;
46363;SDS011;32071;49.036;9.344;2023-04-25T13:45:00;19.80;;;10.50;;
46363;SDS011;32071;49.036;9.344;2023-04-25T13:47:27;13.90;;;9.07;;
46363;SDS011;32071;49.036;9.344;2023-04-25T13:49:52;13.53;;;7.93;;
46363;SDS011;32071;49.036;9.344;2023-04-25T13:52:19;11.93;;;9.40;;
46363;SDS011;32071;49.036;9.344;2023-04-25T13:54:44;10.77;;;8.27;;
46363;SDS011;32071;49.036;9.344;2023-04-25T13:57:10;13.20;;;8.57;;
46363;SDS011;32071;49.036;9.344;2023-04-25T13:59:36;13.23;;;9.00;;
46363;SDS011;32071;49.036;9.344;2023-04-25T14:02:02;12.47;;;7.73;;
46363;SDS011;32071;49.036;9.344;2023-04-25T14:04:28;13.37;;;7.70;;
46363;SDS011;32071;49.036;9.344;2023-04-25T14:06:53;9.10;;;7.30;;
46363;SDS011;32071;49.036;9.344;2023-04-25T14:09:20;12.93;;;8.07;;
46363;SDS011;32071;49.036;9.344;2023-04-25T14:11:50;10.93;;;7.50;;
46363;SDS011;32071;49.036;9.344;2023-04-25T14:14:20;9.63;;;7.37;;
46363;SDS011;32071;49.036;9.344;2023-04-25T14:16:46;10.00;;;7.33;;
46363;SDS011;32071;49.036;9.344;2023-04-25T14:19:13;8.20;;;7.30;;
46363;SDS011;32071;49.036;9.344;2023-04-25T14:21:39;9.13;;;7.50;;
46363;SDS011;32071;49.036;9.344;2023-04-25T14:24:05;12.63;;;8.17;;
46363;SDS011;32071;49.036;9.344;2023-04-25T14:26:31;10.40;;;8.03;;
46363;SDS011;32071;49.036;9.344;2023-04-25T14:28:58;11.30;;;8.03;;
46363;SDS011;32071;49.036;9.344;2023-04-25T14:31:24;11.80;;;7.43;;
46363;SDS011;32071;49.036;9.344;2023-04-25T14:33:50;9.20;;;6.37;;
46363;SDS011;32071;49.036;9.344;2023-04-25T14:36:15;9.63;;;7.10;;
46363;SDS011;32071;49.036;9.344;2023-04-25T14:38:41;11.00;;;6.77;;
46363;SDS011;32071;49.036;9.344;2023-04-25T14:41:06;10.50;;;7.30;;
46363;SDS011;32071;49.036;9.344;2023-04-25T14:43:32;9.17;;;7.03;;
46363;SDS011;32071;49.036;9.344;2023-04-25T14:45:57;12.83;;;7.30;;
46363;SDS011;32071;49.036;9.344;2023-04-25T14:48:23;9.63;;;6.97;;